ICN weather

Incheon International Airport
Seoul, Incheon Gwang'yeogsi, South Korea

Public forecast

Using degrees Celsius for public forecast. Weather courtesy of forecast.io.

Current aviation weather report (METAR) for Incheon International Airport

Retrieved 2019/10/19 06:30 UTC (0 seconds ago):

RKSI 190630Z 29011KT 9999 FEW030 20/12 Q1020 NOSIG

Aviation forecast (TAF) for Incheon International Airport

Retrieved 2019/10/19 06:00 UTC (14 minutes ago):

TAF RKSI 190500Z 1906/2012 29010KT 9999 FEW030 TN11/1921Z TX19/2006Z BECMG 1914/1915 35006KT BECMG 1919/1920 07005KT 4200 BR BECMG 1921/1922 7000 NSW BECMG 2000/2001 30006KT